createdAt,value
2018-02-01T00:00:20.401Z,7.10
2018-02-01T00:00:51.928Z,7.00
2018-02-01T00:01:23.563Z,7.00
2018-02-01T00:01:55.206Z,7.10
2018-02-01T00:02:26.857Z,7.10
2018-02-01T00:02:58.583Z,7.00
2018-02-01T00:03:30.254Z,7.10
2018-02-01T00:04:01.888Z,7.10
2018-02-01T00:04:33.529Z,7.20
2018-02-01T00:05:05.158Z,7.10
2018-02-01T00:05:36.770Z,7.20
2018-02-01T00:06:08.408Z,7.20
2018-02-01T00:06:40.038Z,7.10
2018-02-01T00:07:11.663Z,7.10
2018-02-01T00:07:43.295Z,7.10
2018-02-01T00:08:14.928Z,7.10
2018-02-01T00:08:46.533Z,7.10
2018-02-01T00:09:18.156Z,7.50
2018-02-01T00:09:49.752Z,7.10
2018-02-01T00:10:21.359Z,7.10
2018-02-01T00:10:52.997Z,7.10
2018-02-01T00:11:24.639Z,7.10
2018-02-01T00:11:56.264Z,7.10
2018-02-01T00:12:27.872Z,7.10
2018-02-01T00:12:59.496Z,7.20
2018-02-01T00:13:31.159Z,7.20
2018-02-01T00:14:02.808Z,7.10
2018-02-01T00:14:34.420Z,7.20
2018-02-01T00:15:06.040Z,7.10
2018-02-01T00:15:37.665Z,7.10
2018-02-01T00:16:09.300Z,7.10
2018-02-01T00:16:40.919Z,7.10
2018-02-01T00:17:12.540Z,7.10
2018-02-01T00:17:44.178Z,7.10
2018-02-01T00:18:15.776Z,7.00
2018-02-01T00:18:47.392Z,7.00
2018-02-01T00:19:19.058Z,7.00
2018-02-01T00:19:50.708Z,7.00
2018-02-01T00:20:22.343Z,6.90
2018-02-01T00:20:53.970Z,6.90
2018-02-01T00:21:25.609Z,6.90
2018-02-01T00:21:57.228Z,6.90
2018-02-01T00:22:28.843Z,6.90
2018-02-01T00:23:00.490Z,6.80
2018-02-01T00:23:32.092Z,6.80
2018-02-01T00:24:03.713Z,6.80
2018-02-01T00:24:35.352Z,6.80
2018-02-01T00:25:06.980Z,6.70
2018-02-01T00:25:38.593Z,6.70
2018-02-01T00:26:10.271Z,6.80
2018-02-01T00:26:41.885Z,6.70
2018-02-01T00:27:13.493Z,6.70
2018-02-01T00:27:45.108Z,6.70
2018-02-01T00:28:16.716Z,6.70
2018-02-01T00:28:48.376Z,6.70
2018-02-01T00:29:19.997Z,6.60
2018-02-01T00:29:51.614Z,6.60
2018-02-01T00:30:23.218Z,6.60
2018-02-01T00:30:54.863Z,6.50
2018-02-01T00:31:26.529Z,6.50
2018-02-01T00:31:58.202Z,6.50
2018-02-01T00:32:29.821Z,6.50
2018-02-01T00:33:01.465Z,6.50
2018-02-01T00:33:33.091Z,6.50
2018-02-01T00:34:04.715Z,6.50
2018-02-01T00:34:36.353Z,6.40
2018-02-01T00:35:07.995Z,6.40
2018-02-01T00:35:39.691Z,6.40
2018-02-01T00:36:11.327Z,6.30
2018-02-01T00:36:42.981Z,6.40
2018-02-01T00:37:14.612Z,6.30
2018-02-01T00:37:46.247Z,6.30
2018-02-01T00:38:17.864Z,6.20
2018-02-01T00:38:49.495Z,6.30
2018-02-01T00:39:21.129Z,6.30
2018-02-01T00:39:52.743Z,6.30
2018-02-01T00:40:24.360Z,6.30
2018-02-01T00:40:56.004Z,6.30
2018-02-01T00:41:27.615Z,6.30
2018-02-01T00:41:59.219Z,6.30
2018-02-01T00:42:30.844Z,6.20
2018-02-01T00:43:02.440Z,6.20
2018-02-01T00:43:34.050Z,6.20
2018-02-01T00:44:05.665Z,6.20
2018-02-01T00:44:37.263Z,6.30
2018-02-01T00:45:08.867Z,6.20
2018-02-01T00:45:40.497Z,6.20
2018-02-01T00:46:12.124Z,6.30
2018-02-01T00:46:43.738Z,6.30
2018-02-01T00:47:15.351Z,6.40
2018-02-01T00:47:46.969Z,6.30
2018-02-01T00:48:18.624Z,6.40
2018-02-01T00:48:50.272Z,6.30
2018-02-01T00:49:21.923Z,6.40
2018-02-01T00:49:53.548Z,6.40
2018-02-01T00:50:25.184Z,6.40
2018-02-01T00:50:56.831Z,6.50
2018-02-01T00:51:28.439Z,6.50
2018-02-01T00:52:00.028Z,6.50
2018-02-01T00:52:31.644Z,6.50
2018-02-01T00:53:03.265Z,6.60
2018-02-01T00:53:34.872Z,6.50
2018-02-01T00:54:06.475Z,6.50
2018-02-01T00:54:38.097Z,6.60
2018-02-01T00:55:09.715Z,6.70
2018-02-01T00:55:41.327Z,6.70
2018-02-01T00:56:12.917Z,6.70
2018-02-01T00:56:44.523Z,6.60
2018-02-01T00:57:16.141Z,6.70
2018-02-01T00:57:47.756Z,6.60
2018-02-01T00:58:19.449Z,6.70
2018-02-01T00:58:51.049Z,6.70
2018-02-01T00:59:22.665Z,6.80
2018-02-01T00:59:54.289Z,6.80
2018-02-01T01:00:25.925Z,6.80
2018-02-01T01:00:57.561Z,6.90
2018-02-01T01:01:29.186Z,6.90
2018-02-01T01:02:00.803Z,6.80
2018-02-01T01:02:32.438Z,6.90
2018-02-01T01:03:04.054Z,6.90
2018-02-01T01:03:35.657Z,6.90
2018-02-01T01:04:07.271Z,6.90
2018-02-01T01:04:38.891Z,6.90
2018-02-01T01:05:10.531Z,6.90
2018-02-01T01:05:42.211Z,6.90
2018-02-01T01:06:13.828Z,6.90
2018-02-01T01:06:45.455Z,7.00
2018-02-01T01:07:17.095Z,6.90
2018-02-01T01:07:48.706Z,7.00
2018-02-01T01:08:20.309Z,7.00
2018-02-01T01:08:51.977Z,7.00
2018-02-01T01:09:23.621Z,6.90
2018-02-01T01:09:55.258Z,6.90
2018-02-01T01:10:26.879Z,6.90
2018-02-01T01:10:58.489Z,7.00
2018-02-01T01:11:30.111Z,6.90
2018-02-01T01:12:01.724Z,7.00
2018-02-01T01:12:33.361Z,6.90
2018-02-01T01:13:04.988Z,7.00
2018-02-01T01:13:36.603Z,7.00
2018-02-01T01:14:08.217Z,7.00
2018-02-01T01:14:39.829Z,6.90
2018-02-01T01:15:11.465Z,7.00
2018-02-01T01:15:43.093Z,7.00
2018-02-01T01:16:14.741Z,7.00
2018-02-01T01:16:46.359Z,7.00
2018-02-01T01:17:17.991Z,6.90
2018-02-01T01:17:49.622Z,6.80
2018-02-01T01:18:21.243Z,6.90
2018-02-01T01:18:52.871Z,6.90
2018-02-01T01:19:24.483Z,6.90
2018-02-01T01:19:56.084Z,6.80
2018-02-01T01:20:27.701Z,6.90
2018-02-01T01:20:59.325Z,6.90
2018-02-01T01:21:30.929Z,6.90
2018-02-01T01:22:02.571Z,6.90
2018-02-01T01:22:34.183Z,6.80
2018-02-01T01:23:05.816Z,6.90
2018-02-01T01:23:37.437Z,6.90
2018-02-01T01:24:09.062Z,6.80
2018-02-01T01:24:40.683Z,6.90
2018-02-01T01:25:12.313Z,6.90
2018-02-01T01:25:43.930Z,6.90
2018-02-01T01:26:15.549Z,6.90
2018-02-01T01:26:47.177Z,6.90
2018-02-01T01:27:18.793Z,7.00
2018-02-01T01:27:50.456Z,6.90
2018-02-01T01:28:22.083Z,6.90
2018-02-01T01:28:53.719Z,6.90
2018-02-01T01:29:25.417Z,7.00
2018-02-01T01:29:57.036Z,6.90
2018-02-01T01:30:28.679Z,6.90
2018-02-01T01:31:00.309Z,6.80
2018-02-01T01:31:31.915Z,6.80
2018-02-01T01:32:03.537Z,6.90
2018-02-01T01:32:35.159Z,6.90
2018-02-01T01:33:06.789Z,7.00
2018-02-01T01:33:38.427Z,6.90
2018-02-01T01:34:10.069Z,6.90
2018-02-01T01:34:41.698Z,6.90
2018-02-01T01:35:13.327Z,6.90
2018-02-01T01:35:44.943Z,6.90
2018-02-01T01:36:16.555Z,7.00
2018-02-01T01:36:48.181Z,7.00
2018-02-01T01:37:19.875Z,6.90
2018-02-01T01:37:51.465Z,6.90
2018-02-01T01:38:23.099Z,7.00
2018-02-01T01:38:54.719Z,7.00
2018-02-01T01:39:26.365Z,7.00
2018-02-01T01:39:58.003Z,7.00
2018-02-01T01:40:29.629Z,7.00
2018-02-01T01:41:01.239Z,7.00
2018-02-01T01:41:32.865Z,7.00
2018-02-01T01:42:04.497Z,7.00
2018-02-01T01:42:36.116Z,7.00
2018-02-01T01:43:07.719Z,7.10
2018-02-01T01:43:39.353Z,7.10
2018-02-01T01:44:10.987Z,7.00
2018-02-01T01:44:42.610Z,7.10
2018-02-01T01:45:14.231Z,7.10
2018-02-01T01:46:04.489Z,7.10
2018-02-01T01:46:36.123Z,7.10
2018-02-01T01:47:07.763Z,7.20
2018-02-01T01:47:39.389Z,7.10
2018-02-01T01:48:11.043Z,7.10
2018-02-01T01:48:42.687Z,7.10
2018-02-01T01:49:14.319Z,7.10
2018-02-01T01:49:45.927Z,7.20
2018-02-01T01:50:17.537Z,7.10
2018-02-01T01:50:49.165Z,7.10
2018-02-01T01:51:20.801Z,7.20
2018-02-01T01:51:52.399Z,7.20
2018-02-01T01:52:23.987Z,7.20
2018-02-01T01:52:55.599Z,7.10
2018-02-01T01:53:27.229Z,7.10
2018-02-01T01:53:58.879Z,7.20
2018-02-01T01:54:30.505Z,7.20
2018-02-01T01:55:02.133Z,7.30
2018-02-01T01:55:33.756Z,7.20
2018-02-01T01:56:05.373Z,7.10
2018-02-01T01:56:36.994Z,7.20
2018-02-01T01:57:08.608Z,7.20
2018-02-01T01:57:40.253Z,7.10
2018-02-01T01:58:11.905Z,7.20
2018-02-01T01:58:43.515Z,7.20
2018-02-01T01:59:15.115Z,7.10
2018-02-01T01:59:46.771Z,7.00
2018-02-01T02:00:18.417Z,7.10
2018-02-01T02:00:50.101Z,7.20
2018-02-01T02:01:21.731Z,7.10
2018-02-01T02:01:53.379Z,7.10
2018-02-01T02:02:25.008Z,7.20
2018-02-01T02:02:56.625Z,7.10
2018-02-01T02:03:28.247Z,7.10
2018-02-01T02:03:59.889Z,7.10
2018-02-01T02:04:31.513Z,7.20
2018-02-01T02:05:03.163Z,7.10
2018-02-01T02:05:34.795Z,7.10
2018-02-01T02:06:06.437Z,7.20
2018-02-01T02:06:38.069Z,7.10
2018-02-01T02:07:09.687Z,7.10
2018-02-01T02:07:41.309Z,7.10
2018-02-01T02:08:12.961Z,7.10
2018-02-01T02:08:44.571Z,7.10
2018-02-01T02:09:16.183Z,7.10
2018-02-01T02:09:47.784Z,7.10
2018-02-01T02:10:19.391Z,7.10
2018-02-01T02:10:51.031Z,7.10
2018-02-01T02:11:22.656Z,7.10
2018-02-01T02:11:54.301Z,7.20
2018-02-01T02:12:25.925Z,7.10
2018-02-01T02:12:57.542Z,7.20
2018-02-01T02:13:29.190Z,7.20
2018-02-01T02:14:00.815Z,7.20
2018-02-01T02:14:32.463Z,7.20
2018-02-01T02:15:04.093Z,7.30
2018-02-01T02:15:35.729Z,7.30
2018-02-01T02:16:07.344Z,7.30
2018-02-01T02:16:38.977Z,7.20
2018-02-01T02:17:10.585Z,7.20
2018-02-01T02:17:42.241Z,7.20
2018-02-01T02:18:13.875Z,7.20
2018-02-01T02:18:45.497Z,7.30
2018-02-01T02:19:17.121Z,7.20
2018-02-01T02:19:48.757Z,7.20
2018-02-01T02:20:20.411Z,7.20
2018-02-01T02:20:52.088Z,7.20
2018-02-01T02:21:23.727Z,7.30
2018-02-01T02:21:55.367Z,7.20
2018-02-01T02:22:27.009Z,7.10
2018-02-01T02:22:58.626Z,7.20
2018-02-01T02:23:30.261Z,7.20
2018-02-01T02:24:01.881Z,7.10
2018-02-01T02:24:33.513Z,7.10
2018-02-01T02:25:05.147Z,7.10
2018-02-01T02:25:36.775Z,7.10
2018-02-01T02:26:08.387Z,7.00
2018-02-01T02:26:39.987Z,7.00
2018-02-01T02:27:11.599Z,7.00
2018-02-01T02:27:43.217Z,7.00
2018-02-01T02:28:14.855Z,7.10
2018-02-01T02:28:46.493Z,7.00
2018-02-01T02:29:18.115Z,7.00
2018-02-01T02:29:49.731Z,7.00
2018-02-01T02:30:21.349Z,7.00
2018-02-01T02:30:52.987Z,6.90
2018-02-01T02:31:24.603Z,6.90
2018-02-01T02:31:56.220Z,7.00
2018-02-01T02:32:27.885Z,7.00
2018-02-01T02:32:59.502Z,6.90
2018-02-01T02:33:31.148Z,6.90
2018-02-01T02:34:02.776Z,6.90
2018-02-01T02:34:34.438Z,6.90
2018-02-01T02:35:06.091Z,6.90
2018-02-01T02:35:37.717Z,7.00
2018-02-01T02:36:09.381Z,6.90
2018-02-01T02:36:41.009Z,6.90
2018-02-01T02:37:12.649Z,6.90
2018-02-01T02:37:44.275Z,6.80
2018-02-01T02:38:15.905Z,6.80
2018-02-01T02:38:47.530Z,6.80
2018-02-01T02:39:19.152Z,6.80
2018-02-01T02:39:50.761Z,6.80
2018-02-01T02:40:22.394Z,6.80
2018-02-01T02:40:53.999Z,6.70
2018-02-01T02:41:25.627Z,6.70
2018-02-01T02:41:57.262Z,6.80
2018-02-01T02:42:28.879Z,6.70
2018-02-01T02:43:00.497Z,6.70
2018-02-01T02:43:32.112Z,6.70
2018-02-01T02:44:03.753Z,6.70
2018-02-01T02:44:35.397Z,6.70
2018-02-01T02:45:07.011Z,6.80
2018-02-01T02:45:38.628Z,6.70
2018-02-01T02:46:10.241Z,6.70
2018-02-01T02:46:41.880Z,6.70
2018-02-01T02:47:13.491Z,6.70
2018-02-01T02:47:45.125Z,6.70
2018-02-01T02:48:16.743Z,6.60
2018-02-01T02:48:48.371Z,6.70
2018-02-01T02:49:19.986Z,6.70
2018-02-01T02:49:51.583Z,6.60
2018-02-01T02:50:23.199Z,6.60
2018-02-01T02:50:54.809Z,6.60
2018-02-01T02:51:26.423Z,6.60
2018-02-01T02:51:58.035Z,6.60
2018-02-01T02:52:29.659Z,6.70
2018-02-01T02:53:01.272Z,6.70
2018-02-01T02:53:32.907Z,6.70
2018-02-01T02:54:04.538Z,6.70
2018-02-01T02:54:36.157Z,6.50
2018-02-01T02:55:07.804Z,6.60
2018-02-01T02:55:39.423Z,6.50
2018-02-01T02:56:11.045Z,6.60
2018-02-01T02:56:42.649Z,6.60
2018-02-01T02:57:14.271Z,6.50
2018-02-01T02:57:45.889Z,6.60
2018-02-01T02:58:17.493Z,6.60
2018-02-01T02:58:49.113Z,6.60
2018-02-01T02:59:20.729Z,6.60
2018-02-01T02:59:52.343Z,6.50
2018-02-01T03:00:23.969Z,6.60
2018-02-01T03:00:55.591Z,6.60
2018-02-01T03:01:27.214Z,6.50
2018-02-01T03:01:58.859Z,6.50
2018-02-01T03:02:30.473Z,6.60
2018-02-01T03:03:02.091Z,6.50
2018-02-01T03:03:33.703Z,6.50
2018-02-01T03:04:05.331Z,6.60
2018-02-01T03:04:36.959Z,6.50
2018-02-01T03:05:08.579Z,6.60
2018-02-01T03:05:40.179Z,6.60
2018-02-01T03:06:11.830Z,6.60
2018-02-01T03:06:43.479Z,6.50
2018-02-01T03:07:15.099Z,6.60
2018-02-01T03:07:46.745Z,6.70
2018-02-01T03:08:18.359Z,6.60
2018-02-01T03:08:49.967Z,6.70
2018-02-01T03:09:21.569Z,6.70
2018-02-01T03:09:53.251Z,6.60
2018-02-01T03:10:24.873Z,6.70
2018-02-01T03:10:56.477Z,6.70
2018-02-01T03:11:28.098Z,6.70
2018-02-01T03:11:59.725Z,6.60
2018-02-01T03:12:31.345Z,6.70
2018-02-01T03:13:03.021Z,6.70
2018-02-01T03:13:34.641Z,6.70
2018-02-01T03:14:06.277Z,6.80
2018-02-01T03:14:37.909Z,6.70
2018-02-01T03:15:09.533Z,6.80
2018-02-01T03:15:41.192Z,6.80
2018-02-01T03:16:12.754Z,6.70
2018-02-01T03:16:44.389Z,6.70
2018-02-01T03:17:16.009Z,6.80
2018-02-01T03:17:47.651Z,6.80
2018-02-01T03:18:19.305Z,6.80
2018-02-01T03:18:50.929Z,6.80
2018-02-01T03:19:22.565Z,6.80
2018-02-01T03:19:54.173Z,6.70
2018-02-01T03:20:25.781Z,6.80
2018-02-01T03:20:57.413Z,6.80
2018-02-01T03:21:29.050Z,6.80
2018-02-01T03:22:00.663Z,6.80
2018-02-01T03:22:32.285Z,6.80
2018-02-01T03:23:03.885Z,6.80
2018-02-01T03:23:35.497Z,6.80
2018-02-01T03:24:07.127Z,6.80
2018-02-01T03:24:38.759Z,6.80
2018-02-01T03:25:10.369Z,6.80
2018-02-01T03:25:41.993Z,6.80
2018-02-01T03:26:13.612Z,6.80
2018-02-01T03:26:45.249Z,6.80
2018-02-01T03:27:16.879Z,6.80
2018-02-01T03:27:48.483Z,6.80
2018-02-01T03:28:20.112Z,6.80
2018-02-01T03:28:51.759Z,6.80
2018-02-01T03:29:23.379Z,6.70
2018-02-01T03:29:54.979Z,6.80
2018-02-01T03:30:26.612Z,6.80
2018-02-01T03:30:58.286Z,6.80
2018-02-01T03:31:29.907Z,6.80
2018-02-01T03:32:01.525Z,6.80
2018-02-01T03:32:33.143Z,6.80
2018-02-01T03:33:04.765Z,6.80
2018-02-01T03:33:36.368Z,6.80
2018-02-01T03:34:07.991Z,6.80
2018-02-01T03:34:39.619Z,6.80
2018-02-01T03:35:11.257Z,6.80
2018-02-01T03:35:42.857Z,6.70
2018-02-01T03:36:14.463Z,6.70
2018-02-01T03:36:46.073Z,6.80
2018-02-01T03:37:17.687Z,6.80
2018-02-01T03:37:49.297Z,6.70
2018-02-01T03:38:20.921Z,6.80
2018-02-01T03:38:52.537Z,6.80
2018-02-01T03:39:24.143Z,6.80
2018-02-01T03:39:55.801Z,6.90
2018-02-01T03:40:27.406Z,6.70
2018-02-01T03:40:59.008Z,6.80
2018-02-01T03:41:30.635Z,6.80
2018-02-01T03:42:02.305Z,6.80
2018-02-01T03:42:33.927Z,6.80
2018-02-01T03:43:05.529Z,6.80
2018-02-01T03:43:37.155Z,6.80
2018-02-01T03:44:08.768Z,6.80
2018-02-01T03:44:40.401Z,6.80
2018-02-01T03:45:12.012Z,6.80
2018-02-01T03:45:43.641Z,6.80
2018-02-01T03:46:15.263Z,6.90
2018-02-01T03:46:46.885Z,6.90
2018-02-01T03:47:18.519Z,6.90
2018-02-01T03:47:50.157Z,6.70
2018-02-01T03:48:21.783Z,6.80
2018-02-01T03:48:53.389Z,6.80
2018-02-01T03:49:25.064Z,6.80
2018-02-01T03:49:56.689Z,6.80
2018-02-01T03:50:28.305Z,6.80
2018-02-01T03:50:59.931Z,6.90
2018-02-01T03:51:31.549Z,6.80
2018-02-01T03:52:03.192Z,6.80
2018-02-01T03:52:34.787Z,6.80
2018-02-01T03:53:06.405Z,6.80
2018-02-01T03:53:38.015Z,6.90
2018-02-01T03:54:09.639Z,6.80
2018-02-01T03:54:41.282Z,6.90
2018-02-01T03:55:12.911Z,6.80
2018-02-01T03:55:44.501Z,6.90
2018-02-01T03:56:16.146Z,6.90
2018-02-01T03:56:47.753Z,6.90
2018-02-01T03:57:19.384Z,6.90
2018-02-01T03:57:51.006Z,6.80
2018-02-01T03:58:22.591Z,6.80
2018-02-01T03:58:54.229Z,6.90
2018-02-01T03:59:25.869Z,6.90
2018-02-01T03:59:57.604Z,6.80
2018-02-01T04:00:29.239Z,6.90
2018-02-01T04:01:00.867Z,6.90
2018-02-01T04:01:32.519Z,6.80
2018-02-01T04:02:04.145Z,6.80
2018-02-01T04:02:35.747Z,6.90
2018-02-01T04:03:07.351Z,6.90
2018-02-01T04:03:40.073Z,6.90
2018-02-01T04:04:11.686Z,6.90
2018-02-01T04:04:43.315Z,6.90
2018-02-01T04:05:14.937Z,6.90
2018-02-01T04:05:46.559Z,6.90
2018-02-01T04:06:18.194Z,6.90
2018-02-01T04:06:49.804Z,6.90
2018-02-01T04:07:21.460Z,6.90
2018-02-01T04:07:53.095Z,6.80
2018-02-01T04:08:24.711Z,6.90
2018-02-01T04:08:56.303Z,6.90
2018-02-01T04:09:27.918Z,7.00
2018-02-01T04:09:59.737Z,6.90
2018-02-01T04:10:31.371Z,6.90
2018-02-01T04:11:03.019Z,6.90
2018-02-01T04:11:34.627Z,7.00
2018-02-01T04:12:06.234Z,6.90
2018-02-01T04:12:37.851Z,6.90
2018-02-01T04:13:09.475Z,6.90
2018-02-01T04:13:41.101Z,6.90
2018-02-01T04:14:12.777Z,6.90
2018-02-01T04:14:44.404Z,7.00
2018-02-01T04:15:16.040Z,6.90
2018-02-01T04:15:47.649Z,6.90
2018-02-01T04:16:19.270Z,6.90
2018-02-01T04:16:50.901Z,6.90
2018-02-01T04:17:22.507Z,6.90
2018-02-01T04:17:54.119Z,6.90
2018-02-01T04:18:25.717Z,6.90
2018-02-01T04:18:57.339Z,6.90
2018-02-01T04:19:28.979Z,6.90
2018-02-01T04:20:00.665Z,7.00
2018-02-01T04:20:32.243Z,7.00
2018-02-01T04:21:03.860Z,6.90
2018-02-01T04:21:35.502Z,6.90
2018-02-01T04:22:07.137Z,7.00
2018-02-01T04:22:38.753Z,7.00
2018-02-01T04:23:10.350Z,7.00
2018-02-01T04:23:41.957Z,7.00
2018-02-01T04:24:13.576Z,7.00
2018-02-01T04:24:45.178Z,7.00
2018-02-01T04:25:16.778Z,7.00
2018-02-01T04:25:48.391Z,7.00
2018-02-01T04:26:19.986Z,7.00
2018-02-01T04:26:51.610Z,7.00
2018-02-01T04:27:23.206Z,7.00
2018-02-01T04:27:54.828Z,7.00
2018-02-01T04:28:26.476Z,7.00
2018-02-01T04:28:58.159Z,7.10
2018-02-01T04:29:29.784Z,7.10
2018-02-01T04:30:01.395Z,7.10
2018-02-01T04:30:33.088Z,7.10
2018-02-01T04:31:04.675Z,7.10
2018-02-01T04:31:36.280Z,7.20
2018-02-01T04:32:07.910Z,7.10
2018-02-01T04:32:39.539Z,7.10
2018-02-01T04:33:11.165Z,7.10
2018-02-01T04:33:42.787Z,7.20
2018-02-01T04:34:14.408Z,7.20
2018-02-01T04:34:46.024Z,7.20
2018-02-01T04:35:17.657Z,7.20
2018-02-01T04:35:49.282Z,7.20
2018-02-01T04:36:20.909Z,7.20
2018-02-01T04:36:52.508Z,7.30
2018-02-01T04:37:24.126Z,7.30
2018-02-01T04:37:55.793Z,7.30
2018-02-01T04:38:27.425Z,7.30
2018-02-01T04:38:59.073Z,7.30
2018-02-01T04:39:30.689Z,7.30
2018-02-01T04:40:02.311Z,7.40
2018-02-01T04:40:34.014Z,7.30
2018-02-01T04:41:05.589Z,7.30
2018-02-01T04:41:37.206Z,7.20
2018-02-01T04:42:08.809Z,7.30
2018-02-01T04:42:40.460Z,7.20
2018-02-01T04:43:12.084Z,7.30
2018-02-01T04:43:43.688Z,7.20
2018-02-01T04:44:15.287Z,7.20
2018-02-01T04:44:46.902Z,7.30
2018-02-01T04:45:18.550Z,7.20
2018-02-01T04:45:50.166Z,7.10
2018-02-01T04:46:21.786Z,7.10
2018-02-01T04:46:53.375Z,7.10
2018-02-01T04:47:24.999Z,7.10
2018-02-01T04:47:56.625Z,7.20
2018-02-01T04:48:28.247Z,7.10
2018-02-01T04:48:59.870Z,7.10
2018-02-01T04:49:31.494Z,7.10
2018-02-01T04:50:03.144Z,7.10
2018-02-01T04:50:34.762Z,7.20
2018-02-01T04:51:06.368Z,7.20
2018-02-01T04:51:37.987Z,7.20
2018-02-01T04:52:09.603Z,7.10
2018-02-01T04:52:41.231Z,7.20
2018-02-01T04:53:12.880Z,7.10
2018-02-01T04:53:44.486Z,7.20
2018-02-01T04:54:16.127Z,7.10
2018-02-01T04:54:47.751Z,7.20
2018-02-01T04:55:19.388Z,7.10
2018-02-01T04:55:51.031Z,7.10
2018-02-01T04:56:22.709Z,7.10
2018-02-01T04:56:54.311Z,7.10
2018-02-01T04:57:25.921Z,7.00
2018-02-01T04:57:57.551Z,7.10
2018-02-01T04:58:29.220Z,7.10
2018-02-01T04:59:00.860Z,7.00
2018-02-01T04:59:32.499Z,7.10
2018-02-01T05:00:04.153Z,7.10
2018-02-01T05:00:35.777Z,7.00
2018-02-01T05:01:07.405Z,7.10
2018-02-01T05:01:39.040Z,7.10
2018-02-01T05:02:10.664Z,7.10
2018-02-01T05:02:42.272Z,7.10
2018-02-01T05:03:13.912Z,7.00
2018-02-01T05:03:45.563Z,7.10
2018-02-01T05:04:17.192Z,7.00
2018-02-01T05:04:48.807Z,7.00
2018-02-01T05:05:20.476Z,7.00
2018-02-01T05:05:52.086Z,7.10
2018-02-01T05:06:23.700Z,7.00
2018-02-01T05:06:55.304Z,7.00
2018-02-01T05:07:26.912Z,7.00
2018-02-01T05:07:58.531Z,7.00
2018-02-01T05:08:30.138Z,7.00
2018-02-01T05:09:01.852Z,7.00
2018-02-01T05:09:33.478Z,7.00
2018-02-01T05:10:05.084Z,7.00
2018-02-01T05:10:36.718Z,7.10
2018-02-01T05:11:08.327Z,7.10
2018-02-01T05:11:39.940Z,7.10
2018-02-01T05:12:11.563Z,7.20
2018-02-01T05:12:43.188Z,7.10
2018-02-01T05:13:14.784Z,7.10
2018-02-01T05:13:46.381Z,7.10
2018-02-01T05:14:18.002Z,7.00
2018-02-01T05:14:49.629Z,7.20
2018-02-01T05:15:21.255Z,7.10
2018-02-01T05:15:52.878Z,7.10
2018-02-01T05:16:24.508Z,7.10
2018-02-01T05:16:56.107Z,7.10
2018-02-01T05:17:27.732Z,7.00
2018-02-01T05:17:59.343Z,7.00
2018-02-01T05:18:31.030Z,7.00
2018-02-01T05:19:02.658Z,7.00
2018-02-01T05:19:34.286Z,7.00
2018-02-01T05:20:05.960Z,7.00
2018-02-01T05:20:37.568Z,7.00
2018-02-01T05:21:09.192Z,6.90
2018-02-01T05:21:40.808Z,6.90
2018-02-01T05:22:12.434Z,6.90
2018-02-01T05:22:44.034Z,6.90
2018-02-01T05:23:15.641Z,6.90
2018-02-01T05:23:47.313Z,6.90
2018-02-01T05:24:18.987Z,6.90
2018-02-01T05:24:50.625Z,6.90
2018-02-01T05:25:22.252Z,6.90
2018-02-01T05:25:53.881Z,6.90
2018-02-01T05:26:25.505Z,6.90
2018-02-01T05:26:57.123Z,6.90
2018-02-01T05:27:28.719Z,6.90
2018-02-01T05:28:00.349Z,6.90
2018-02-01T05:28:31.991Z,6.90
2018-02-01T05:29:03.748Z,6.90
2018-02-01T05:29:35.424Z,6.90
2018-02-01T05:30:07.068Z,6.90
2018-02-01T05:30:38.692Z,6.90
2018-02-01T05:31:10.308Z,6.90
2018-02-01T05:31:41.912Z,6.90
2018-02-01T05:32:13.524Z,6.90
2018-02-01T05:32:45.137Z,6.90
2018-02-01T05:33:16.765Z,6.90
2018-02-01T05:33:48.379Z,6.90
2018-02-01T05:34:20.004Z,6.90
2018-02-01T05:34:51.607Z,6.90
2018-02-01T05:35:23.243Z,7.00
2018-02-01T05:35:54.877Z,7.00
2018-02-01T05:36:26.491Z,7.00
2018-02-01T05:36:58.094Z,7.00
2018-02-01T05:37:29.737Z,7.00
2018-02-01T05:38:01.360Z,7.00
2018-02-01T05:38:32.975Z,7.00
2018-02-01T05:39:04.600Z,6.90
2018-02-01T05:39:36.210Z,6.90
2018-02-01T05:40:07.830Z,6.90
2018-02-01T05:40:39.444Z,7.00
2018-02-01T05:41:11.110Z,7.00
2018-02-01T05:41:42.752Z,6.90
2018-02-01T05:42:14.392Z,7.00
2018-02-01T05:42:46.004Z,6.90
2018-02-01T05:43:17.604Z,6.90
2018-02-01T05:43:49.222Z,7.00
2018-02-01T05:44:20.854Z,7.00
2018-02-01T05:44:52.478Z,7.00
2018-02-01T05:45:24.076Z,7.00
2018-02-01T05:45:55.702Z,7.00
2018-02-01T05:46:27.344Z,7.00
2018-02-01T05:46:58.956Z,7.00
2018-02-01T05:47:30.578Z,7.00
2018-02-01T05:48:02.212Z,6.90
2018-02-01T05:48:33.840Z,7.00
2018-02-01T05:49:05.435Z,7.10
2018-02-01T05:49:37.052Z,7.10
2018-02-01T05:50:08.668Z,7.10
2018-02-01T05:50:40.290Z,7.00
2018-02-01T05:51:11.917Z,7.10
2018-02-01T05:51:43.538Z,7.20
2018-02-01T05:52:15.154Z,7.20
2018-02-01T05:52:46.765Z,7.00
2018-02-01T05:53:18.370Z,7.20
2018-02-01T05:53:50.010Z,7.10
2018-02-01T05:54:21.628Z,7.10
2018-02-01T05:54:53.245Z,7.10
2018-02-01T05:55:24.859Z,7.20
2018-02-01T05:55:56.469Z,7.10
2018-02-01T05:56:28.101Z,7.10
2018-02-01T05:56:59.710Z,7.10
2018-02-01T05:57:31.322Z,7.10
2018-02-01T05:58:02.942Z,7.00
2018-02-01T05:58:34.564Z,7.00
2018-02-01T05:59:06.258Z,7.10
2018-02-01T05:59:37.860Z,7.00
2018-02-01T06:00:09.487Z,7.00
2018-02-01T06:00:41.204Z,6.90
2018-02-01T06:01:12.813Z,6.90
2018-02-01T06:01:44.442Z,6.90
2018-02-01T06:02:16.058Z,6.90
2018-02-01T06:02:47.680Z,6.80
2018-02-01T06:03:19.298Z,6.80
2018-02-01T06:03:50.920Z,6.80
2018-02-01T06:04:22.516Z,6.80
2018-02-01T06:04:54.178Z,6.80
2018-02-01T06:05:25.796Z,6.90
2018-02-01T06:05:57.416Z,6.80
2018-02-01T06:06:29.034Z,6.80
2018-02-01T06:07:00.650Z,6.80
2018-02-01T06:07:32.256Z,6.80
2018-02-01T06:08:03.882Z,6.80
2018-02-01T06:08:35.506Z,6.80
2018-02-01T06:09:07.124Z,6.80
2018-02-01T06:09:38.748Z,6.80
2018-02-01T06:10:10.364Z,6.80
2018-02-01T06:10:41.984Z,6.80
2018-02-01T06:11:13.597Z,6.80
2018-02-01T06:11:45.196Z,6.80
2018-02-01T06:12:16.812Z,6.80
2018-02-01T06:12:48.433Z,6.80
2018-02-01T06:13:20.038Z,6.80
2018-02-01T06:13:51.648Z,6.80
2018-02-01T06:14:23.270Z,6.80
2018-02-01T06:14:54.902Z,6.80
2018-02-01T06:15:26.546Z,6.80
2018-02-01T06:15:58.162Z,6.80
2018-02-01T06:16:29.767Z,6.80
2018-02-01T06:17:01.408Z,6.90
2018-02-01T06:17:33.092Z,6.80
2018-02-01T06:18:04.753Z,6.80
2018-02-01T06:18:36.404Z,6.80
2018-02-01T06:19:08.013Z,6.70
2018-02-01T06:19:39.631Z,6.70
2018-02-01T06:20:11.248Z,6.70
2018-02-01T06:20:42.860Z,6.70
2018-02-01T06:21:14.474Z,6.60
2018-02-01T06:21:46.074Z,6.60
2018-02-01T06:22:17.690Z,6.60
2018-02-01T06:22:49.323Z,6.60
2018-02-01T06:23:20.924Z,6.70
2018-02-01T06:23:52.532Z,6.60
2018-02-01T06:24:24.147Z,6.60
2018-02-01T06:24:55.760Z,6.70
2018-02-01T06:25:27.353Z,6.60
2018-02-01T06:25:58.979Z,6.50
2018-02-01T06:26:30.606Z,6.60
2018-02-01T06:27:02.274Z,6.60
2018-02-01T06:27:33.863Z,6.50
2018-02-01T06:28:05.484Z,6.60
2018-02-01T06:28:37.093Z,6.60
2018-02-01T06:29:08.763Z,6.60
2018-02-01T06:29:40.406Z,6.60
2018-02-01T06:30:12.040Z,6.60
2018-02-01T06:30:43.647Z,6.60
2018-02-01T06:31:15.261Z,6.70
2018-02-01T06:31:46.877Z,6.60
2018-02-01T06:32:18.508Z,6.70
2018-02-01T06:32:50.127Z,6.70
2018-02-01T06:33:21.801Z,6.70
2018-02-01T06:33:53.464Z,6.70
2018-02-01T06:34:25.080Z,6.70
2018-02-01T06:34:56.689Z,6.70
2018-02-01T06:35:28.324Z,6.70
2018-02-01T06:35:59.961Z,6.70
2018-02-01T06:36:31.569Z,6.80
2018-02-01T06:37:03.198Z,6.80
2018-02-01T06:37:34.807Z,6.80
2018-02-01T06:38:06.482Z,6.80
2018-02-01T06:38:38.109Z,6.80
2018-02-01T06:39:09.717Z,6.90
2018-02-01T06:39:41.332Z,6.80
2018-02-01T06:40:12.990Z,7.00
2018-02-01T06:40:44.616Z,6.90
2018-02-01T06:41:16.235Z,6.90
2018-02-01T06:41:47.896Z,6.90
2018-02-01T06:42:19.517Z,6.90
2018-02-01T06:42:51.138Z,7.00
2018-02-01T06:43:22.740Z,6.90
2018-02-01T06:43:54.355Z,7.00
2018-02-01T06:44:25.973Z,7.00
2018-02-01T06:44:57.586Z,7.00
2018-02-01T06:45:29.236Z,7.00
2018-02-01T06:46:00.870Z,7.00
2018-02-01T06:46:32.482Z,7.00
2018-02-01T06:47:04.108Z,7.00
2018-02-01T06:47:35.749Z,7.00
2018-02-01T06:48:07.408Z,7.10
2018-02-01T06:48:39.025Z,7.00
2018-02-01T06:49:10.698Z,7.00
2018-02-01T06:49:42.279Z,7.00
2018-02-01T06:50:13.884Z,6.90
2018-02-01T06:50:45.506Z,6.90
2018-02-01T06:51:17.137Z,6.90
2018-02-01T06:51:48.814Z,6.90
2018-02-01T06:52:20.421Z,6.90
2018-02-01T06:52:52.046Z,6.80
2018-02-01T06:53:23.653Z,6.90
2018-02-01T06:53:55.277Z,6.90
2018-02-01T06:54:27.123Z,6.90
2018-02-01T06:54:58.749Z,6.90
2018-02-01T06:55:30.357Z,6.80
2018-02-01T06:56:01.971Z,6.90
2018-02-01T06:56:33.628Z,6.90
2018-02-01T06:57:05.237Z,6.90
2018-02-01T06:57:36.840Z,6.80
2018-02-01T06:58:08.452Z,6.90
2018-02-01T06:58:40.070Z,7.00
2018-02-01T06:59:11.718Z,6.90
2018-02-01T06:59:43.328Z,6.90
2018-02-01T07:00:14.963Z,6.90
2018-02-01T07:00:47.627Z,6.90
2018-02-01T07:02:29.558Z,6.80